createdAt,value
2018-10-07T00:00:57.663Z,100003.68
2018-10-07T00:03:24.968Z,100007.06
2018-10-07T00:08:25.743Z,100011.91
2018-10-07T00:10:53.046Z,100021.59
2018-10-07T00:13:20.330Z,100020.23
2018-10-07T00:15:47.577Z,100027.84
2018-10-07T00:18:14.877Z,100033.91
2018-10-07T00:20:42.150Z,100040.89
2018-10-07T00:23:09.456Z,100038.62
2018-10-07T00:25:36.756Z,100031.92
2018-10-07T00:28:04.082Z,100035.08
2018-10-07T00:30:31.324Z,100052.98
2018-10-07T00:32:58.619Z,100049.84
2018-10-07T00:35:25.964Z,100045.15
2018-10-07T00:37:53.249Z,100043.41
2018-10-07T00:40:20.505Z,100049.94
2018-10-07T00:42:47.798Z,100052.41
2018-10-07T00:45:15.115Z,100060.38
2018-10-07T00:47:42.407Z,100064.02
2018-10-07T00:50:09.691Z,100068.15
2018-10-07T00:52:37.014Z,100069.95
2018-10-07T00:55:04.429Z,100071.47
2018-10-07T00:57:31.772Z,100068.39
2018-10-07T00:59:59.058Z,100081.01
2018-10-07T01:02:26.372Z,100085.85
2018-10-07T01:04:53.656Z,100090.80
2018-10-07T01:07:20.936Z,100092.64
2018-10-07T01:09:48.182Z,100094.69
2018-10-07T01:12:15.467Z,100088.41
2018-10-07T01:14:42.770Z,100082.71
2018-10-07T01:17:10.140Z,100087.58
2018-10-07T01:19:37.479Z,100085.07
2018-10-07T01:22:04.816Z,100095.88
2018-10-07T01:24:32.102Z,100101.63
2018-10-07T01:26:59.389Z,100110.86
2018-10-07T01:29:26.668Z,100112.52
2018-10-07T01:31:53.964Z,100112.94
2018-10-07T01:34:21.220Z,100111.80
2018-10-07T01:36:48.556Z,100110.48
2018-10-07T01:39:15.806Z,100117.63
2018-10-07T01:41:43.050Z,100123.47
2018-10-07T01:44:10.442Z,100126.99
2018-10-07T01:46:37.703Z,100127.95
2018-10-07T01:49:05.025Z,100129.28
2018-10-07T01:51:32.243Z,100136.31
2018-10-07T01:53:59.539Z,100143.11
2018-10-07T01:56:26.814Z,100141.03
2018-10-07T01:58:54.099Z,100137.02
2018-10-07T02:01:21.369Z,100139.97
2018-10-07T02:03:48.629Z,100150.90
2018-10-07T02:06:16.017Z,100145.18
2018-10-07T02:08:43.328Z,100157.91
2018-10-07T02:11:10.643Z,100158.13
2018-10-07T02:13:37.883Z,100175.13
2018-10-07T02:16:05.133Z,100173.56
2018-10-07T02:18:32.394Z,100183.25
2018-10-07T02:20:59.641Z,100182.09
2018-10-07T02:23:26.985Z,100189.44
2018-10-07T02:25:54.301Z,100188.36
2018-10-07T02:28:21.671Z,100196.48
2018-10-07T02:30:48.919Z,100198.05
2018-10-07T02:33:16.180Z,100201.58
2018-10-07T02:35:43.494Z,100198.31
2018-10-07T02:38:10.813Z,100208.36
2018-10-07T02:40:40.289Z,100203.64
2018-10-07T02:43:07.524Z,100213.84
2018-10-07T02:45:34.850Z,100223.55
2018-10-07T02:48:02.104Z,100234.94
2018-10-07T02:50:29.402Z,100238.41
2018-10-07T02:52:56.818Z,100228.53
2018-10-07T02:55:29.102Z,100242.70
2018-10-07T02:57:57.092Z,100244.23
2018-10-07T03:00:24.368Z,100248.84
2018-10-07T03:02:52.062Z,100247.09
2018-10-07T03:05:19.360Z,100242.04
2018-10-07T03:07:47.270Z,100232.95
2018-10-07T03:10:14.533Z,100240.22
2018-10-07T03:12:42.073Z,100250.67
2018-10-07T03:15:09.423Z,100242.98
2018-10-07T03:17:36.763Z,100250.34
2018-10-07T03:20:04.080Z,100256.52
2018-10-07T03:22:31.407Z,100256.64
2018-10-07T03:24:58.768Z,100271.27
2018-10-07T03:27:26.047Z,100283.20
2018-10-07T03:29:53.595Z,100291.33
2018-10-07T03:32:20.863Z,100286.54
2018-10-07T03:34:48.131Z,100294.94
2018-10-07T03:37:15.528Z,100303.66
2018-10-07T03:39:42.813Z,100307.45
2018-10-07T03:42:10.289Z,100313.09
2018-10-07T03:44:37.588Z,100310.97
2018-10-07T03:47:04.926Z,100316.53
2018-10-07T03:49:32.163Z,100317.30
2018-10-07T03:51:59.451Z,100319.50
2018-10-07T03:54:27.109Z,100325.67
2018-10-07T03:56:54.770Z,100315.69
2018-10-07T03:59:22.258Z,100329.78
2018-10-07T04:01:49.526Z,100333.04
2018-10-07T04:04:16.839Z,100338.02
2018-10-07T04:06:44.052Z,100341.19
2018-10-07T04:09:12.237Z,100347.33
2018-10-07T04:11:40.466Z,100360.25
2018-10-07T04:14:07.941Z,100350.44
2018-10-07T04:16:35.291Z,100364.67
2018-10-07T04:19:02.573Z,100365.95
2018-10-07T04:21:29.856Z,100373.48
2018-10-07T04:23:57.127Z,100383.63
2018-10-07T04:26:24.456Z,100386.73
2018-10-07T04:28:51.711Z,100383.17
2018-10-07T04:31:19.018Z,100388.75
2018-10-07T04:33:46.303Z,100401.85
2018-10-07T04:36:13.780Z,100404.12
2018-10-07T04:38:41.032Z,100403.50
2018-10-07T04:41:08.271Z,100405.20
2018-10-07T04:43:35.527Z,100416.02
2018-10-07T04:46:02.751Z,100421.29
2018-10-07T04:48:30.097Z,100424.22
2018-10-07T04:50:57.399Z,100419.91
2018-10-07T04:53:24.839Z,100421.05
2018-10-07T04:55:52.115Z,100430.31
2018-10-07T04:58:25.908Z,100436.37
2018-10-07T05:00:53.403Z,100442.59
2018-10-07T05:03:20.809Z,100461.80
2018-10-07T05:05:48.585Z,100459.66
2018-10-07T05:08:15.887Z,100467.52
2018-10-07T05:10:48.059Z,100475.63
2018-10-07T05:13:19.039Z,100478.53
2018-10-07T05:15:48.091Z,100473.28
2018-10-07T05:18:15.391Z,100480.27
2018-10-07T05:20:42.657Z,100494.68
2018-10-07T05:23:09.988Z,100500.41
2018-10-07T05:25:37.239Z,100498.37
2018-10-07T05:28:04.555Z,100501.14
2018-10-07T05:30:31.824Z,100519.76
2018-10-07T05:32:59.249Z,100525.86
2018-10-07T05:35:26.787Z,100535.54
2018-10-07T05:37:54.117Z,100535.17
2018-10-07T05:40:21.397Z,100543.15
2018-10-07T05:42:48.661Z,100545.41
2018-10-07T05:45:15.960Z,100554.52
2018-10-07T05:47:43.216Z,100556.99
2018-10-07T05:50:10.492Z,100563.98
2018-10-07T05:52:37.756Z,100562.89
2018-10-07T05:55:05.077Z,100571.62
2018-10-07T05:57:32.391Z,100576.66
2018-10-07T05:59:59.764Z,100585.98
2018-10-07T06:02:27.536Z,100593.95
2018-10-07T06:04:55.849Z,100610.06
2018-10-07T06:07:23.852Z,100602.70
2018-10-07T06:09:51.155Z,100616.58
2018-10-07T06:12:18.445Z,100619.19
2018-10-07T06:14:57.285Z,100627.07
2018-10-07T06:17:24.503Z,100635.32
2018-10-07T06:19:51.778Z,100648.52
2018-10-07T06:22:19.019Z,100660.14
2018-10-07T06:24:46.291Z,100675.41
2018-10-07T06:27:13.556Z,100679.18
2018-10-07T06:29:40.859Z,100678.52
2018-10-07T06:32:08.174Z,100685.38
2018-10-07T06:34:35.472Z,100695.26
2018-10-07T06:37:02.739Z,100706.00
2018-10-07T06:39:30.014Z,100713.61
2018-10-07T06:41:57.269Z,100724.49
2018-10-07T06:44:24.575Z,100727.83
2018-10-07T06:46:51.893Z,100733.09
2018-10-07T06:49:19.493Z,100749.61
2018-10-07T06:51:46.759Z,100754.66
2018-10-07T06:54:14.435Z,100755.25
2018-10-07T06:56:41.801Z,100770.44
2018-10-07T06:59:09.187Z,100776.89
2018-10-07T07:01:36.463Z,100786.20
2018-10-07T07:04:03.768Z,100792.41
2018-10-07T07:06:31.113Z,100795.38
2018-10-07T07:08:58.375Z,100800.44
2018-10-07T07:11:25.686Z,100805.99
2018-10-07T07:13:53.018Z,100811.12
2018-10-07T07:16:20.290Z,100813.82
2018-10-07T07:18:47.630Z,100816.34
2018-10-07T07:21:14.970Z,100828.77
2018-10-07T07:23:42.216Z,100826.39
2018-10-07T07:26:09.550Z,100834.06
2018-10-07T07:28:36.790Z,100842.20
2018-10-07T07:31:04.090Z,100843.51
2018-10-07T07:33:31.431Z,100846.19
2018-10-07T07:35:58.751Z,100860.28
2018-10-07T07:38:26.038Z,100858.33
2018-10-07T07:40:53.572Z,100860.91
2018-10-07T07:43:20.946Z,100877.37
2018-10-07T07:45:48.283Z,100891.83
2018-10-07T07:48:15.687Z,100897.58
2018-10-07T07:50:43.036Z,100913.47
2018-10-07T07:53:10.330Z,100922.36
2018-10-07T07:55:37.675Z,100914.55
2018-10-07T07:58:04.953Z,100931.63
2018-10-07T08:00:32.325Z,100939.58
2018-10-07T08:02:59.607Z,100946.84
2018-10-07T08:05:26.947Z,100949.73
2018-10-07T08:07:54.256Z,100959.78
2018-10-07T08:10:21.536Z,100962.44
2018-10-07T08:12:48.857Z,100968.48
2018-10-07T08:15:16.161Z,100963.70
2018-10-07T08:17:43.519Z,100966.47
2018-10-07T08:20:10.831Z,100967.80
2018-10-07T08:22:38.167Z,100965.45
2018-10-07T08:25:05.474Z,100961.31
2018-10-07T08:27:32.748Z,100962.05
2018-10-07T08:30:00.035Z,100968.06
2018-10-07T08:32:27.331Z,100968.68
2018-10-07T08:34:54.621Z,100968.53
2018-10-07T08:37:21.965Z,100974.47
2018-10-07T08:39:49.263Z,100981.94
2018-10-07T08:42:16.503Z,100977.62
2018-10-07T08:44:43.879Z,100978.81
2018-10-07T08:47:11.228Z,100982.48
2018-10-07T08:49:38.633Z,100981.57
2018-10-07T08:52:05.893Z,100988.72
2018-10-07T08:54:33.250Z,100984.11
2018-10-07T08:57:00.798Z,100990.05
2018-10-07T08:59:28.137Z,100986.66
2018-10-07T09:01:55.559Z,100991.65
2018-10-07T09:04:23.156Z,101001.15
2018-10-07T09:06:50.401Z,100993.29
2018-10-07T09:09:17.683Z,101001.89
2018-10-07T09:11:45.040Z,101001.73
2018-10-07T09:14:12.404Z,101002.66
2018-10-07T09:16:39.974Z,101001.11
2018-10-07T09:19:07.374Z,101004.55
2018-10-07T09:21:34.952Z,101010.17
2018-10-07T09:24:02.499Z,101013.78
2018-10-07T09:26:29.797Z,101017.84
2018-10-07T09:28:57.177Z,101024.54
2018-10-07T09:31:24.526Z,101020.27
2018-10-07T09:33:51.956Z,101029.63
2018-10-07T09:36:19.404Z,101034.49
2018-10-07T09:38:46.757Z,101036.67
2018-10-07T09:41:14.072Z,101045.22
2018-10-07T09:43:41.369Z,101048.20
2018-10-07T09:46:08.721Z,101050.03
2018-10-07T09:48:36.055Z,101050.63
2018-10-07T09:51:03.669Z,101062.52
2018-10-07T09:53:31.019Z,101062.15
2018-10-07T09:55:58.378Z,101058.20
2018-10-07T09:58:25.735Z,101066.52
2018-10-07T10:00:53.109Z,101068.50
2018-10-07T10:03:20.461Z,101068.55
2018-10-07T10:05:47.727Z,101075.81
2018-10-07T10:08:15.031Z,101075.62
2018-10-07T10:10:42.423Z,101080.41
2018-10-07T10:13:10.083Z,101075.14
2018-10-07T10:15:37.406Z,101070.68
2018-10-07T10:18:06.134Z,101080.59
2018-10-07T10:21:12.095Z,101091.22
2018-10-07T10:23:49.066Z,101090.79
2018-10-07T10:26:20.825Z,101089.48
2018-10-07T10:28:51.617Z,101097.27
2018-10-07T10:31:22.751Z,101093.18
2018-10-07T10:33:55.474Z,101095.19
2018-10-07T10:36:32.426Z,101090.42
2018-10-07T10:39:10.142Z,101101.19
2018-10-07T10:41:42.726Z,101097.81
2018-10-07T10:44:17.601Z,101095.86
2018-10-07T10:46:55.749Z,101098.95
2018-10-07T10:51:35.847Z,101094.13
2018-10-07T10:54:09.052Z,101107.47
2018-10-07T10:56:39.615Z,101103.41
2018-10-07T10:59:10.567Z,101105.91
2018-10-07T11:02:53.670Z,101104.02
2018-10-07T11:05:30.353Z,101098.28
2018-10-07T11:10:07.667Z,101092.85
2018-10-07T11:12:41.268Z,101095.52
2018-10-07T11:15:17.139Z,101098.13
2018-10-07T11:18:04.979Z,101110.68
2018-10-07T11:20:56.867Z,101112.47
2018-10-07T11:24:01.057Z,101111.70
2018-10-07T11:26:41.361Z,101122.68
2018-10-07T11:29:20.093Z,101110.96
2018-10-07T11:31:55.986Z,101123.08
2018-10-07T11:35:01.977Z,101122.44
2018-10-07T11:37:47.476Z,101126.41
2018-10-07T11:40:26.195Z,101126.95
2018-10-07T11:43:16.104Z,101128.48
2018-10-07T11:45:48.725Z,101125.81
2018-10-07T11:48:28.199Z,101122.73
2018-10-07T11:51:05.273Z,101109.53
2018-10-07T11:54:09.124Z,101116.91
2018-10-07T11:56:36.731Z,101108.16
2018-10-07T11:59:04.337Z,101115.16
2018-10-07T12:01:31.671Z,101122.69
2018-10-07T12:03:58.956Z,101123.13
2018-10-07T12:06:26.313Z,101120.69
2018-10-07T12:08:53.616Z,101114.61
2018-10-07T12:11:20.920Z,101112.20
2018-10-07T12:13:48.196Z,101111.66
2018-10-07T12:16:15.554Z,101102.80
2018-10-07T12:18:42.943Z,101103.53
2018-10-07T12:21:10.312Z,101108.59
2018-10-07T12:23:37.679Z,101101.00
2018-10-07T12:26:04.964Z,101114.84
2018-10-07T12:28:32.292Z,101110.73
2018-10-07T12:30:59.605Z,101113.12
2018-10-07T12:33:26.956Z,101120.42
2018-10-07T12:35:54.252Z,101124.91
2018-10-07T12:38:21.734Z,101119.41
2018-10-07T12:40:49.065Z,101131.11
2018-10-07T12:43:16.345Z,101131.29
2018-10-07T12:45:43.649Z,101131.20
2018-10-07T12:48:11.091Z,101132.34
2018-10-07T12:50:38.495Z,101133.64
2018-10-07T12:53:05.855Z,101139.27
2018-10-07T12:55:33.324Z,101135.75
2018-10-07T12:58:00.751Z,101138.43
2018-10-07T13:00:28.060Z,101131.23
2018-10-07T13:02:55.397Z,101131.66
2018-10-07T13:05:22.780Z,101119.21
2018-10-07T13:07:50.152Z,101123.91
2018-10-07T13:10:17.487Z,101119.98
2018-10-07T13:12:44.819Z,101137.41
2018-10-07T13:15:12.146Z,101136.23
2018-10-07T13:17:39.473Z,101140.50
2018-10-07T13:20:06.830Z,101138.19
2018-10-07T13:22:34.137Z,101130.78
2018-10-07T13:25:01.569Z,101132.13
2018-10-07T13:27:28.927Z,101140.65
2018-10-07T13:29:56.303Z,101132.62
2018-10-07T13:32:24.497Z,101143.39
2018-10-07T13:34:51.787Z,101142.23
2018-10-07T13:37:19.056Z,101141.64
2018-10-07T13:39:46.398Z,101148.67
2018-10-07T13:42:13.699Z,101147.27
2018-10-07T13:44:41.005Z,101155.22
2018-10-07T13:47:08.312Z,101160.56
2018-10-07T13:49:35.650Z,101146.75
2018-10-07T13:52:03.007Z,101155.05
2018-10-07T13:54:30.416Z,101156.80
2018-10-07T13:56:57.718Z,101157.08
2018-10-07T13:59:24.995Z,101170.88
2018-10-07T14:01:52.343Z,101173.92
2018-10-07T14:04:19.635Z,101170.59
2018-10-07T14:06:47.024Z,101164.24
2018-10-07T14:09:14.294Z,101174.69
2018-10-07T14:11:43.055Z,101178.47
2018-10-07T14:14:10.381Z,101177.98
2018-10-07T14:16:37.669Z,101177.25
2018-10-07T14:19:04.971Z,101174.94
2018-10-07T14:21:32.278Z,101179.86
2018-10-07T14:23:59.605Z,101183.04
2018-10-07T14:26:26.915Z,101174.27
2018-10-07T14:28:54.247Z,101185.21
2018-10-07T14:31:21.579Z,101194.23
2018-10-07T14:33:48.892Z,101192.70
2018-10-07T14:36:16.887Z,101209.73
2018-10-07T14:38:44.125Z,101209.41
2018-10-07T14:41:11.529Z,101212.58
2018-10-07T14:43:38.795Z,101203.21
2018-10-07T14:46:06.067Z,101209.54
2018-10-07T14:48:33.631Z,101212.20
2018-10-07T14:51:00.896Z,101221.71
2018-10-07T14:53:28.258Z,101213.48
2018-10-07T14:55:55.591Z,101213.64
2018-10-07T14:58:22.949Z,101217.42
2018-10-07T15:00:50.313Z,101221.54
2018-10-07T15:03:17.606Z,101223.70
2018-10-07T15:05:44.960Z,101227.27
2018-10-07T15:08:12.286Z,101235.92
2018-10-07T15:10:39.697Z,101239.79
2018-10-07T15:13:07.067Z,101251.68
2018-10-07T15:15:34.416Z,101248.84
2018-10-07T15:18:01.691Z,101255.13
2018-10-07T15:20:29.177Z,101256.16
2018-10-07T15:22:56.495Z,101254.17
2018-10-07T15:25:23.841Z,101257.50
2018-10-07T15:27:51.219Z,101255.31
2018-10-07T15:30:18.530Z,101257.42
2018-10-07T15:32:45.826Z,101258.86
2018-10-07T15:35:13.202Z,101256.09
2018-10-07T15:37:40.488Z,101260.44
2018-10-07T15:40:07.792Z,101266.69
2018-10-07T15:42:35.136Z,101266.88
2018-10-07T15:45:02.421Z,101266.58
2018-10-07T15:47:29.807Z,101275.53
2018-10-07T15:49:57.122Z,101278.76
2018-10-07T15:52:24.450Z,101274.13
2018-10-07T15:54:51.832Z,101276.38
2018-10-07T15:57:19.150Z,101273.30
2018-10-07T15:59:46.469Z,101273.47
2018-10-07T16:02:13.893Z,101275.62
2018-10-07T16:04:41.241Z,101265.36
2018-10-07T16:07:08.566Z,101269.34
2018-10-07T16:09:35.893Z,101273.16
2018-10-07T16:12:03.221Z,101275.88
2018-10-07T16:14:30.490Z,101285.30
2018-10-07T16:16:57.841Z,101279.80
2018-10-07T16:19:25.108Z,101284.93
2018-10-07T16:21:52.429Z,101290.14
2018-10-07T16:24:19.833Z,101298.64
2018-10-07T16:26:47.228Z,101307.87
2018-10-07T16:29:14.531Z,101305.70
2018-10-07T16:31:41.836Z,101309.98
2018-10-07T16:34:09.226Z,101308.69
2018-10-07T16:36:36.502Z,101310.54
2018-10-07T16:39:05.139Z,101317.77
2018-10-07T16:41:33.429Z,101324.03
2018-10-07T16:44:01.217Z,101322.38
2018-10-07T16:46:28.561Z,101331.92
2018-10-07T16:48:55.883Z,101339.83
2018-10-07T16:51:23.157Z,101334.08
2018-10-07T16:53:50.572Z,101347.53
2018-10-07T16:56:17.836Z,101343.69
2018-10-07T16:58:45.411Z,101351.91
2018-10-07T17:01:12.693Z,101357.47
2018-10-07T17:03:40.002Z,101363.13
2018-10-07T17:06:07.354Z,101366.41
2018-10-07T17:08:34.615Z,101369.86
2018-10-07T17:11:01.958Z,101374.69
2018-10-07T17:13:29.373Z,101379.39
2018-10-07T17:15:56.600Z,101385.14
2018-10-07T17:18:23.933Z,101389.33
2018-10-07T17:20:51.212Z,101398.38
2018-10-07T17:23:18.499Z,101402.36
2018-10-07T17:25:45.781Z,101395.26
2018-10-07T17:28:13.099Z,101398.30
2018-10-07T17:30:43.921Z,101407.20
2018-10-07T17:33:11.412Z,101399.33
2018-10-07T17:35:39.013Z,101399.97
2018-10-07T17:38:06.733Z,101395.70
2018-10-07T17:40:34.029Z,101403.19
2018-10-07T17:43:01.303Z,101399.59
2018-10-07T17:45:28.611Z,101406.39
2018-10-07T17:47:55.925Z,101401.91
2018-10-07T17:50:23.230Z,101404.08
2018-10-07T17:52:50.997Z,101404.30
2018-10-07T17:55:18.289Z,101398.58
2018-10-07T17:57:45.573Z,101397.26
2018-10-07T18:00:13.619Z,101396.61
2018-10-07T18:02:41.059Z,101398.33
2018-10-07T18:05:08.520Z,101396.67
2018-10-07T18:07:35.791Z,101398.50
2018-10-07T18:10:03.088Z,101391.55
2018-10-07T18:12:30.452Z,101396.06
2018-10-07T18:14:57.771Z,101395.80
2018-10-07T18:17:25.245Z,101394.20
2018-10-07T18:19:52.538Z,101393.07
2018-10-07T18:22:19.945Z,101394.64
2018-10-07T18:24:47.204Z,101398.05
2018-10-07T18:27:14.556Z,101392.91
2018-10-07T18:29:41.870Z,101401.13
2018-10-07T18:32:09.225Z,101403.39
2018-10-07T18:34:36.612Z,101407.61
2018-10-07T18:37:04.029Z,101404.62
2018-10-07T18:39:31.353Z,101416.86
2018-10-07T18:41:58.678Z,101420.47
2018-10-07T18:44:25.954Z,101421.20
2018-10-07T18:46:53.313Z,101431.75
2018-10-07T18:49:20.679Z,101428.08
2018-10-07T18:51:48.058Z,101428.13
2018-10-07T18:54:15.347Z,101429.72
2018-10-07T18:56:42.676Z,101428.44
2018-10-07T18:59:09.949Z,101423.78
2018-10-07T19:01:37.323Z,101426.25
2018-10-07T19:04:04.661Z,101426.59
2018-10-07T19:06:32.001Z,101427.13
2018-10-07T19:08:59.295Z,101432.59
2018-10-07T19:11:26.665Z,101434.94
2018-10-07T19:13:54.009Z,101437.53
2018-10-07T19:16:21.357Z,101433.52
2018-10-07T19:18:48.785Z,101444.16
2018-10-07T19:21:16.136Z,101449.59
2018-10-07T19:23:43.525Z,101457.05
2018-10-07T19:26:10.847Z,101462.87
2018-10-07T19:28:38.186Z,101460.45
2018-10-07T19:31:05.585Z,101460.17
2018-10-07T19:33:32.920Z,101456.28
2018-10-07T19:36:00.258Z,101467.88
2018-10-07T19:38:27.558Z,101467.36
2018-10-07T19:40:54.907Z,101469.73
2018-10-07T19:43:22.213Z,101475.53
2018-10-07T19:45:49.606Z,101480.72
2018-10-07T19:48:16.933Z,101477.06
2018-10-07T19:50:44.239Z,101482.76
2018-10-07T19:53:11.616Z,101482.58
2018-10-07T19:55:38.958Z,101486.23
2018-10-07T19:58:06.296Z,101484.66
2018-10-07T20:00:33.692Z,101486.64
2018-10-07T20:03:01.097Z,101480.34
2018-10-07T20:05:28.388Z,101485.63
2018-10-07T20:07:55.726Z,101485.01
2018-10-07T20:10:23.051Z,101490.11
2018-10-07T20:12:50.378Z,101486.62
2018-10-07T20:15:17.795Z,101491.72
2018-10-07T20:17:45.080Z,101485.58
2018-10-07T20:20:12.431Z,101486.50
2018-10-07T20:22:39.774Z,101483.33
2018-10-07T20:25:07.087Z,101481.17
2018-10-07T20:27:34.410Z,101477.50
2018-10-07T20:30:01.741Z,101476.78
2018-10-07T20:32:29.030Z,101484.88
2018-10-07T20:34:56.421Z,101480.50
2018-10-07T20:37:23.715Z,101468.74
2018-10-07T20:39:51.128Z,101457.73
2018-10-07T20:42:18.537Z,101473.75
2018-10-07T20:44:45.843Z,101460.42
2018-10-07T20:47:13.185Z,101469.94
2018-10-07T20:49:40.479Z,101473.78
2018-10-07T20:52:07.853Z,101475.30
2018-10-07T20:54:35.223Z,101483.30
2018-10-07T20:57:02.604Z,101480.18
2018-10-07T20:59:29.914Z,101475.73
2018-10-07T21:01:57.279Z,101471.17
2018-10-07T21:04:24.596Z,101474.13
2018-10-07T21:06:51.959Z,101472.56
2018-10-07T21:09:19.269Z,101463.61
2018-10-07T21:11:46.647Z,101469.49
2018-10-07T21:14:14.009Z,101464.97
2018-10-07T21:16:41.364Z,101461.79
2018-10-07T21:19:08.758Z,101462.05
2018-10-07T21:21:36.098Z,101465.61
2018-10-07T21:24:03.435Z,101467.91
2018-10-07T21:26:30.796Z,101472.20
2018-10-07T21:28:58.142Z,101471.47
2018-10-07T21:31:25.458Z,101473.78
2018-10-07T21:33:52.848Z,101473.59
2018-10-07T21:36:20.280Z,101480.52
2018-10-07T21:38:47.688Z,101474.52
2018-10-07T21:41:14.976Z,101477.81
2018-10-07T21:43:42.226Z,101477.04
2018-10-07T21:46:09.788Z,101477.08
2018-10-07T21:48:37.069Z,101474.17
2018-10-07T21:51:04.441Z,101471.29
2018-10-07T21:53:31.850Z,101467.66
2018-10-07T21:55:59.276Z,101466.74
2018-10-07T21:58:26.537Z,101468.42
2018-10-07T22:00:53.839Z,101468.39
2018-10-07T22:03:21.176Z,101465.09
2018-10-07T22:05:48.496Z,101457.98
2018-10-07T22:08:15.808Z,101449.41
2018-10-07T22:10:43.095Z,101452.89
2018-10-07T22:13:10.411Z,101457.59
2018-10-07T22:15:37.705Z,101446.80
2018-10-07T22:18:05.009Z,101452.58
2018-10-07T22:20:32.333Z,101451.00
2018-10-07T22:22:59.743Z,101450.69
2018-10-07T22:25:27.040Z,101449.52
2018-10-07T22:27:54.329Z,101449.98
2018-10-07T22:30:21.979Z,101446.30
2018-10-07T22:32:49.313Z,101452.14
2018-10-07T22:35:16.607Z,101442.11
2018-10-07T22:37:43.867Z,101436.80
2018-10-07T22:40:11.174Z,101440.25
2018-10-07T22:42:38.489Z,101445.84
2018-10-07T22:45:05.914Z,101441.48
2018-10-07T22:47:33.335Z,101446.43
2018-10-07T22:50:00.599Z,101450.20
2018-10-07T22:52:27.939Z,101443.12
2018-10-07T22:54:55.252Z,101454.56
2018-10-07T22:57:22.597Z,101451.36
2018-10-07T22:59:49.870Z,101452.27
2018-10-07T23:02:17.314Z,101449.30
2018-10-07T23:04:44.578Z,101458.11
2018-10-07T23:07:11.933Z,101459.46
2018-10-07T23:09:39.223Z,101455.64
2018-10-07T23:12:06.502Z,101448.89
2018-10-07T23:14:33.892Z,101454.72
2018-10-07T23:17:01.234Z,101455.20
2018-10-07T23:19:28.576Z,101457.58
2018-10-07T23:21:55.849Z,101455.83
2018-10-07T23:24:23.133Z,101449.05
2018-10-07T23:26:50.410Z,101451.69
2018-10-07T23:29:17.700Z,101448.23
2018-10-07T23:31:45.045Z,101445.76
2018-10-07T23:34:12.297Z,101445.66
2018-10-07T23:36:39.554Z,101449.21
2018-10-07T23:39:08.175Z,101444.56
2018-10-07T23:41:35.533Z,101440.14
2018-10-07T23:44:02.961Z,101445.30
2018-10-07T23:46:30.195Z,101451.36
2018-10-07T23:48:57.522Z,101437.00
2018-10-07T23:51:24.776Z,101442.52
2018-10-07T23:53:52.111Z,101437.67
2018-10-07T23:56:19.479Z,101439.67
2018-10-07T23:58:46.814Z,101439.08
